This is the latest recevied weather packets stored in our database for station/object IN3XSV-13. If no packets are shown the sender has not sent any weather packets the latest 10 day(s).
| Time | Temp. | Humidity | Pressure | Rain* | Wind** | Luminosity | Snow |
|---|---|---|---|---|---|---|---|
| 1777557841 | 21.11° C | 44% | 9960 hPa | 0 mm | - | - | - |
| 1777557541 | 20.56° C | 44% | 9960 hPa | 0 mm | - | - | - |
| 1777557241 | 20° C | 44% | 9960 hPa | 0 mm | - | - | - |
| 1777556941 | 19.44° C | 45% | 9960 hPa | 0 mm | - | - | - |
| 1777556641 | 20° C | 46% | 9960.2 hPa | 0 mm | - | - | - |
| 1777556341 | 20° C | 45% | 9960.3 hPa | 0 mm | - | - | - |
| 1777556041 | 20° C | 46% | 9960.3 hPa | 0 mm | - | - | - |
| 1777555741 | 20° C | 48% | 9960.3 hPa | 0 mm | - | - | - |
| 1777555441 | 19.44° C | 48% | 9960.3 hPa | 0 mm | - | - | - |
| 1777555141 | 19.44° C | 48% | 9960.4 hPa | 0 mm | - | - | - |
| 1777554841 | 18.89° C | 48% | 9960.4 hPa | 0 mm | - | - | - |
| 1777554541 | 19.44° C | 47% | 9960.5 hPa | 0 mm | - | - | - |
| 1777554241 | 18.89° C | 48% | 9960.5 hPa | 0 mm | - | - | - |
| 1777553941 | 18.89° C | 48% | 9960.6 hPa | 0 mm | - | - | - |
| 1777553641 | 18.89° C | 48% | 9960.8 hPa | 0 mm | - | - | - |
| 1777553341 | 18.89° C | 47% | 9960.9 hPa | 0 mm | - | - | - |
| 1777553041 | 18.89° C | 49% | 9960.9 hPa | 0 mm | - | - | - |
| 1777552741 | 18.33° C | 50% | 9961 hPa | 0 mm | - | - | - |
| 1777552441 | 18.33° C | 52% | 9960.9 hPa | 0 mm | - | - | - |
| 1777552141 | 18.33° C | 51% | 9960.9 hPa | 0 mm | - | - | - |
| 1777551841 | 17.78° C | 52% | 9960.9 hPa | 0 mm | - | - | - |
| 1777551541 | 18.33° C | 52% | 9961.1 hPa | 0 mm | - | - | - |
| 1777551241 | 18.33° C | 51% | 9961.2 hPa | 0 mm | - | - | - |
| 1777550941 | 18.33° C | 52% | 9961.2 hPa | 0 mm | - | - | - |
| 1777550641 | 18.33° C | 54% | 9961.3 hPa | 0 mm | - | - | - |
* Rain latest hour (hover to see other rain measurements)
** Current wind speed in m/s (hover to see current wind gust speed)